Time;durP1;ratioP1;P1;durP2;ratioP2;P2;SDS_P1;SDS_P2;PMS_P1;PMS_P2;Temp;Humidity;BMP_temperature;BMP_pressure;BME280_temperature;BME280_humidity;BME280_pressure;Samples;Min_cycle;Max_cycle;Signal;HPM_P1;HPM_P2
2023/07/25 08:59:42;;;;;;;5.05;4.50;;;;;;;;;;4953178;28;20413;-85
2023/07/25 09:02:09;;;;;;;5.30;4.65;;;;;;;;;;4957464;29;20533;-85
2023/07/25 09:04:34;;;;;;;6.30;5.03;;;;;;;;;;4957195;29;20027;-88
2023/07/25 09:07:01;;;;;;;4.60;4.05;;;;;;;;;;4958154;29;20031;-87
2023/07/25 09:09:26;;;;;;;6.30;4.80;;;;;;;;;;4924165;29;20057;-87
2023/07/25 09:11:53;;;;;;;6.28;4.70;;;;;;;;;;4957092;29;20027;-87
2023/07/25 09:14:18;;;;;;;7.00;5.07;;;;;;;;;;4957227;29;20034;-87
2023/07/25 09:16:44;;;;;;;5.15;4.28;;;;;;;;;;4956917;29;20035;-87
2023/07/25 09:19:10;;;;;;;4.60;4.20;;;;;;;;;;4957058;29;20023;-87
2023/07/25 09:21:50;;;;;;;5.13;4.47;;;;;;;;;;4956923;29;20031;-87
2023/07/25 09:24:15;;;;;;;4.57;4.10;;;;;;;;;;4956842;29;20034;-87
2023/07/25 09:26:51;;;;;;;4.72;3.78;;;;;;;;;;4956882;29;20035;-87
2023/07/25 09:29:17;;;;;;;4.47;4.07;;;;;;;;;;4956851;28;20462;-87
2023/07/25 09:31:46;;;;;;;4.85;4.10;;;;;;;;;;4956936;29;20501;-88
2023/07/25 09:34:17;;;;;;;6.13;4.20;;;;;;;;;;4939736;29;20478;-89
2023/07/25 09:36:50;;;;;;;7.05;5.30;;;;;;;;;;4956740;29;20035;-88
2023/07/25 09:39:16;;;;;;;5.32;3.80;;;;;;;;;;4956621;29;20054;-88
2023/07/25 09:41:45;;;;;;;4.25;3.85;;;;;;;;;;4957001;29;20526;-87
2023/07/25 09:44:11;;;;;;;4.82;3.40;;;;;;;;;;4956345;29;20035;-89
2023/07/25 09:46:37;;;;;;;8.35;5.03;;;;;;;;;;4956446;29;20031;-87
2023/07/25 09:49:02;;;;;;;6.28;3.72;;;;;;;;;;4957524;29;20019;-88
2023/07/25 09:51:28;;;;;;;5.57;3.95;;;;;;;;;;4956812;29;20059;-89
2023/07/25 09:53:54;;;;;;;4.70;3.47;;;;;;;;;;4956869;29;20553;-88
2023/07/25 09:56:21;;;;;;;5.03;3.75;;;;;;;;;;4955976;29;20462;-88
2023/07/25 09:58:51;;;;;;;4.97;3.55;;;;;;;;;;4957049;29;20023;-89
2023/07/25 10:01:17;;;;;;;4.63;3.20;;;;;;;;;;4956367;28;20051;-88
2023/07/25 10:03:44;;;;;;;4.90;4.40;;;;;;;;;;4955120;29;20419;-87
2023/07/25 10:06:10;;;;;;;3.85;3.20;;;;;;;;;;4956057;29;20058;-87
2023/07/25 10:08:38;;;;;;;6.22;3.53;;;;;;;;;;4956319;29;20027;-88
2023/07/25 10:11:05;;;;;;;4.28;3.60;;;;;;;;;;4956167;29;20027;-88
2023/07/25 10:13:32;;;;;;;4.63;3.58;;;;;;;;;;4956596;29;20031;-88
2023/07/25 10:16:00;;;;;;;3.83;3.22;;;;;;;;;;4956473;29;20039;-90
2023/07/25 10:18:28;;;;;;;3.70;3.30;;;;;;;;;;4956225;29;20027;-88
2023/07/25 10:20:54;;;;;;;5.65;3.30;;;;;;;;;;4956358;29;20066;-89
2023/07/25 10:23:34;;;;;;;4.35;3.60;;;;;;;;;;4956192;29;20071;-91
2023/07/25 10:26:14;;;;;;;4.53;3.83;;;;;;;;;;4956015;29;20038;-86
2023/07/25 10:28:40;;;;;;;6.53;4.38;;;;;;;;;;4955667;29;20031;-86
2023/07/25 10:31:22;;;;;;;4.53;3.95;;;;;;;;;;4960949;29;20492;-92
2023/07/25 10:33:54;;;;;;;4.40;3.97;;;;;;;;;;5155167;23;20054;-96
2023/07/25 10:36:24;;;;;;;5.40;4.00;;;;;;;;;;4986647;28;20106;-96
2023/07/25 10:38:52;;;;;;;5.22;4.30;;;;;;;;;;4986287;28;20023;-95
2023/07/25 10:41:20;;;;;;;4.22;3.63;;;;;;;;;;4984419;28;20045;-94
2023/07/25 10:43:46;;;;;;;4.35;3.72;;;;;;;;;;4984941;28;20026;-94
2023/07/25 10:46:40;;;;;;;6.47;3.80;;;;;;;;;;4984340;28;20035;-95
2023/07/25 10:49:16;;;;;;;5.18;3.72;;;;;;;;;;4980488;28;20031;-94
2023/07/25 10:51:52;;;;;;;4.50;3.50;;;;;;;;;;4978309;28;20050;-94
2023/07/25 10:54:41;;;;;;;5.32;3.63;;;;;;;;;;4995750;23;20019;-96
2023/07/25 10:57:17;;;;;;;4.28;3.88;;;;;;;;;;4977484;28;20038;-96
2023/07/25 11:17:48;;;;;;;4.43;3.30;;;;;;;;;;5791883;23;20055;-91
2023/07/25 11:20:19;;;;;;;4.35;3.95;;;;;;;;;;4981326;28;20031;-88
2023/07/25 11:22:49;;;;;;;3.65;3.15;;;;;;;;;;4994212;28;20117;-88
2023/07/25 11:25:15;;;;;;;3.40;3.10;;;;;;;;;;4993973;28;20049;-88
2023/07/25 11:27:45;;;;;;;3.88;3.30;;;;;;;;;;4993763;28;20385;-87
2023/07/25 11:30:16;;;;;;;4.43;3.50;;;;;;;;;;4994009;28;20037;-88
2023/07/25 11:32:49;;;;;;;4.45;3.45;;;;;;;;;;4994002;28;20105;-87
2023/07/25 11:35:16;;;;;;;4.00;3.50;;;;;;;;;;4994070;28;20022;-88
2023/07/25 16:57:43;;;;;;;5.75;3.15;;;;;;;;;;5146351;23;20051;-85
2023/07/25 17:00:10;;;;;;;4.10;3.15;;;;;;;;;;4976448;28;20473;-86
2023/07/25 17:02:35;;;;;;;4.22;3.17;;;;;;;;;;4976813;28;20149;-89
2023/07/25 17:05:03;;;;;;;4.00;3.70;;;;;;;;;;4976509;28;20490;-88
2023/07/25 17:07:29;;;;;;;6.75;4.30;;;;;;;;;;4976549;28;20510;-86
2023/07/25 17:09:55;;;;;;;5.05;3.75;;;;;;;;;;4977818;28;20488;-95
2023/07/25 17:12:21;;;;;;;6.03;3.28;;;;;;;;;;4962676;28;20026;-95
2023/07/25 17:14:46;;;;;;;4.97;3.25;;;;;;;;;;4977798;28;20081;-95
2023/07/25 17:17:12;;;;;;;3.33;2.97;;;;;;;;;;4959576;28;20054;-96
2023/07/25 17:19:37;;;;;;;5.70;3.58;;;;;;;;;;4977129;28;20034;-92
2023/07/25 17:22:03;;;;;;;3.42;3.05;;;;;;;;;;4959620;28;20027;-92
2023/07/25 17:24:29;;;;;;;4.95;3.40;;;;;;;;;;4959637;28;20039;-93
2023/07/25 17:26:54;;;;;;;4.57;3.70;;;;;;;;;;4977484;28;20031;-93
2023/07/25 17:29:20;;;;;;;6.00;4.00;;;;;;;;;;4959492;28;20023;-93
2023/07/25 17:31:45;;;;;;;6.25;4.65;;;;;;;;;;4959302;28;20089;-90
2023/07/25 17:34:11;;;;;;;6.38;3.47;;;;;;;;;;4977082;28;20110;-90
2023/07/25 17:36:36;;;;;;;3.45;3.00;;;;;;;;;;4958731;28;20082;-93
2023/07/25 17:39:03;;;;;;;3.55;2.80;;;;;;;;;;4976468;28;20105;-92
2023/07/25 17:41:29;;;;;;;6.18;3.10;;;;;;;;;;4976629;28;20200;-91
2023/07/25 17:43:54;;;;;;;4.63;3.42;;;;;;;;;;4959606;28;20108;-90
2023/07/25 17:46:20;;;;;;;6.72;3.55;;;;;;;;;;4976130;28;20537;-90
2023/07/25 17:48:45;;;;;;;5.13;3.40;;;;;;;;;;4975888;28;20038;-91
2023/07/25 17:51:11;;;;;;;7.82;3.85;;;;;;;;;;4976044;28;20029;-88
2023/07/25 17:53:36;;;;;;;3.22;2.83;;;;;;;;;;4958480;28;20389;-88
2023/07/25 17:56:03;;;;;;;4.45;3.65;;;;;;;;;;4975909;28;20493;-89
2023/07/25 17:58:29;;;;;;;5.40;3.30;;;;;;;;;;4975754;28;20055;-88
2023/07/25 18:00:54;;;;;;;4.57;3.42;;;;;;;;;;4976847;28;20429;-96
2023/07/25 18:03:20;;;;;;;4.85;3.53;;;;;;;;;;4980978;28;20113;-87
2023/07/25 18:05:47;;;;;;;3.60;2.75;;;;;;;;;;4961783;28;20062;-88
2023/07/25 18:08:13;;;;;;;4.13;3.20;;;;;;;;;;4958713;28;20038;-90
2023/07/25 18:10:39;;;;;;;3.97;3.10;;;;;;;;;;4975657;28;20114;-86
2023/07/25 18:13:06;;;;;;;4.00;3.10;;;;;;;;;;4958646;28;20058;-90
2023/07/25 18:15:32;;;;;;;3.15;2.85;;;;;;;;;;4975885;28;20033;-91
2023/07/25 18:17:59;;;;;;;6.43;2.85;;;;;;;;;;4975545;28;20048;-90
2023/07/25 18:20:24;;;;;;;6.85;2.75;;;;;;;;;;4976303;28;20027;-90
2023/07/25 18:22:50;;;;;;;3.47;2.85;;;;;;;;;;4958250;28;20031;-92
2023/07/25 18:25:15;;;;;;;10.10;4.70;;;;;;;;;;4958195;28;20122;-88
2023/07/25 18:27:40;;;;;;;6.70;4.70;;;;;;;;;;4975430;28;20022;-91
2023/07/25 18:30:07;;;;;;;5.40;4.13;;;;;;;;;;4975331;28;20117;-92
2023/07/25 18:32:32;;;;;;;5.05;4.15;;;;;;;;;;4975123;28;20375;-91
2023/07/25 18:34:58;;;;;;;5.13;4.15;;;;;;;;;;4975360;28;20125;-93
2023/07/25 18:37:23;;;;;;;4.38;3.30;;;;;;;;;;4975110;28;20031;-90
2023/07/25 18:39:49;;;;;;;3.22;2.63;;;;;;;;;;4958035;28;20069;-90
2023/07/25 18:42:14;;;;;;;3.85;2.60;;;;;;;;;;4957853;28;20073;-91
2023/07/25 18:44:39;;;;;;;6.85;2.80;;;;;;;;;;4975197;28;20054;-88
2023/07/25 18:47:05;;;;;;;5.82;2.95;;;;;;;;;;4975143;28;20027;-92
2023/07/25 18:49:30;;;;;;;5.18;2.63;;;;;;;;;;4975380;28;20019;-91
2023/07/25 18:51:56;;;;;;;9.57;3.13;;;;;;;;;;4975084;28;20022;-90
2023/07/25 18:54:21;;;;;;;6.00;2.80;;;;;;;;;;4974725;28;20026;-88
2023/07/25 18:56:47;;;;;;;4.60;3.10;;;;;;;;;;4960899;28;20029;-93
2023/07/25 18:59:12;;;;;;;4.90;4.40;;;;;;;;;;4957780;28;20047;-93
2023/07/25 19:01:38;;;;;;;6.80;5.32;;;;;;;;;;4975624;28;20031;-95
2023/07/25 19:04:03;;;;;;;6.32;4.43;;;;;;;;;;4978698;28;20473;-90
2023/07/25 19:06:29;;;;;;;3.25;2.90;;;;;;;;;;4962255;28;20034;-88
2023/07/25 19:08:54;;;;;;;4.05;2.38;;;;;;;;;;4979357;28;20362;-93
2023/07/25 19:11:20;;;;;;;3.53;2.58;;;;;;;;;;4979253;28;20054;-90
2023/07/25 19:13:45;;;;;;;4.13;2.55;;;;;;;;;;4962116;28;20034;-89
2023/07/25 19:16:11;;;;;;;2.70;2.47;;;;;;;;;;4961961;28;20023;-94
2023/07/25 19:18:37;;;;;;;4.18;2.40;;;;;;;;;;4961976;28;20035;-93
2023/07/25 19:21:02;;;;;;;3.03;2.13;;;;;;;;;;4967948;28;20034;-90
2023/07/25 19:23:28;;;;;;;2.70;2.25;;;;;;;;;;4969883;28;20485;-94
2023/07/25 19:26:00;;;;;;;3.05;2.15;;;;;;;;;;4981996;28;20023;-88
2023/07/25 19:28:27;;;;;;;3.17;2.30;;;;;;;;;;4981749;28;20374;-90
2023/07/25 19:30:54;;;;;;;2.30;2.10;;;;;;;;;;4982891;28;20111;-88
2023/07/25 19:33:19;;;;;;;4.00;2.67;;;;;;;;;;4983263;28;20089;-88
2023/07/25 19:35:56;;;;;;;3.45;2.30;;;;;;;;;;4963359;28;20074;-88
2023/07/25 19:38:22;;;;;;;3.88;2.17;;;;;;;;;;4978312;28;20037;-88
2023/07/25 19:40:48;;;;;;;3.05;2.03;;;;;;;;;;4978835;28;20018;-94
2023/07/25 19:43:13;;;;;;;4.15;2.20;;;;;;;;;;4978742;28;20031;-88
2023/07/25 19:45:39;;;;;;;2.25;2.05;;;;;;;;;;4978430;28;20536;-87
2023/07/25 19:48:04;;;;;;;2.10;1.90;;;;;;;;;;4978360;28;20026;-88
2023/07/25 19:50:30;;;;;;;3.58;2.13;;;;;;;;;;4978067;28;20051;-87
2023/07/25 19:52:56;;;;;;;4.10;2.10;;;;;;;;;;4978290;28;20109;-89
2023/07/25 19:55:24;;;;;;;5.00;2.40;;;;;;;;;;4978670;28;20509;-87
2023/07/25 19:57:50;;;;;;;6.55;2.78;;;;;;;;;;4960160;28;20433;-84
2023/07/25 20:00:16;;;;;;;6.30;2.63;;;;;;;;;;4977714;28;20029;-92
2023/07/25 20:02:41;;;;;;;5.22;2.13;;;;;;;;;;4977464;28;20029;-86
2023/07/25 20:05:07;;;;;;;4.35;2.20;;;;;;;;;;4977642;28;20026;-85
2023/07/25 20:07:33;;;;;;;3.38;2.00;;;;;;;;;;4978007;28;20038;-85
2023/07/25 20:09:58;;;;;;;3.25;2.20;;;;;;;;;;4977730;28;20077;-85
2023/07/25 20:12:23;;;;;;;3.20;2.17;;;;;;;;;;4977743;28;20034;-88
2023/07/25 20:14:49;;;;;;;4.57;2.30;;;;;;;;;;4977397;28;20389;-86
2023/07/25 20:17:14;;;;;;;2.80;1.92;;;;;;;;;;4977920;28;20031;-89
2023/07/25 20:19:40;;;;;;;1.95;1.77;;;;;;;;;;4960030;28;20030;-86
2023/07/25 20:22:06;;;;;;;9.35;1.85;;;;;;;;;;4977705;28;20034;-89
2023/07/25 20:24:31;;;;;;;2.75;1.85;;;;;;;;;;4977207;28;20038;-85
2023/07/25 20:26:56;;;;;;;4.25;1.80;;;;;;;;;;4977262;28;20027;-86
2023/07/25 20:29:22;;;;;;;3.40;1.90;;;;;;;;;;4977346;28;20445;-85
2023/07/25 20:31:47;;;;;;;3.53;1.70;;;;;;;;;;4960227;28;20437;-86
2023/07/25 20:34:13;;;;;;;2.22;1.90;;;;;;;;;;4977057;28;20031;-86
2023/07/25 20:36:38;;;;;;;2.80;1.95;;;;;;;;;;4977665;28;20065;-89
2023/07/25 20:39:03;;;;;;;2.58;1.80;;;;;;;;;;4977326;28;20027;-86
2023/07/25 20:41:29;;;;;;;2.83;2.05;;;;;;;;;;4977615;28;20025;-86
2023/07/25 20:43:55;;;;;;;2.10;1.90;;;;;;;;;;4977071;28;20034;-85
2023/07/25 20:46:20;;;;;;;3.13;1.65;;;;;;;;;;4977255;28;20042;-85
2023/07/25 20:48:46;;;;;;;3.67;1.85;;;;;;;;;;4976930;28;20109;-86
2023/07/25 20:51:11;;;;;;;2.75;2.28;;;;;;;;;;4977115;28;20458;-85
2023/07/25 20:53:37;;;;;;;3.10;1.88;;;;;;;;;;4976990;28;20038;-92
2023/07/25 20:56:02;;;;;;;1.70;1.60;;;;;;;;;;4976973;28;20106;-91
2023/07/25 20:58:28;;;;;;;2.38;1.83;;;;;;;;;;4976861;28;20062;-85
2023/07/25 21:00:53;;;;;;;2.38;1.92;;;;;;;;;;4976894;28;20030;-85
2023/07/25 21:03:18;;;;;;;3.47;2.00;;;;;;;;;;4976731;28;20039;-85
2023/07/25 21:05:44;;;;;;;2.53;1.80;;;;;;;;;;4959227;28;20109;-85
2023/07/25 21:08:09;;;;;;;2.55;1.90;;;;;;;;;;4976651;28;20373;-85
2023/07/25 21:10:35;;;;;;;3.22;1.70;;;;;;;;;;4976621;28;20027;-86
2023/07/25 21:13:00;;;;;;;2.33;1.70;;;;;;;;;;4976828;28;20033;-88
2023/07/25 21:15:26;;;;;;;2.67;2.00;;;;;;;;;;4976380;28;20023;-85
2023/07/25 21:17:51;;;;;;;2.20;1.58;;;;;;;;;;4976633;28;20027;-85
2023/07/25 21:20:17;;;;;;;2.30;1.50;;;;;;;;;;4976272;28;20433;-87
2023/07/25 21:22:42;;;;;;;2.30;1.52;;;;;;;;;;4959297;28;20355;-85
2023/07/25 21:25:08;;;;;;;2.83;1.50;;;;;;;;;;4976105;28;20038;-85
2023/07/25 21:27:33;;;;;;;2.25;1.60;;;;;;;;;;4975954;28;20023;-85
2023/07/25 21:29:59;;;;;;;1.40;1.30;;;;;;;;;;4976445;28;20030;-85
2023/07/25 21:32:24;;;;;;;3.72;1.70;;;;;;;;;;4959223;28;20031;-93
2023/07/25 21:34:50;;;;;;;2.28;1.52;;;;;;;;;;4976392;28;20403;-91
2023/07/25 21:37:15;;;;;;;1.60;1.50;;;;;;;;;;4958832;28;20486;-86
2023/07/25 21:39:41;;;;;;;1.83;1.50;;;;;;;;;;4976241;28;20462;-87
2023/07/25 21:42:06;;;;;;;1.30;1.20;;;;;;;;;;4976105;28;20031;-86
2023/07/25 21:44:32;;;;;;;2.80;1.40;;;;;;;;;;4976093;28;20027;-91
2023/07/25 21:46:57;;;;;;;1.40;1.25;;;;;;;;;;4975779;28;20034;-86
2023/07/25 21:49:23;;;;;;;1.70;1.40;;;;;;;;;;4976173;28;20053;-86
2023/07/25 21:51:49;;;;;;;1.55;1.45;;;;;;;;;;4958686;28;20109;-86
2023/07/25 21:54:14;;;;;;;1.15;1.08;;;;;;;;;;4975886;28;20066;-89
2023/07/25 21:56:39;;;;;;;1.10;1.10;;;;;;;;;;4975623;28;20031;-87
2023/07/25 21:59:05;;;;;;;1.67;1.20;;;;;;;;;;4958214;28;20093;-86
2023/07/25 22:01:30;;;;;;;1.38;1.10;;;;;;;;;;4975843;28;20027;-86
2023/07/25 22:03:56;;;;;;;1.30;1.20;;;;;;;;;;4975417;28;20035;-86
2023/07/25 22:06:22;;;;;;;1.65;1.10;;;;;;;;;;4958513;28;20031;-87
2023/07/25 22:08:48;;;;;;;1.65;1.52;;;;;;;;;;4958733;28;20031;-85
2023/07/25 22:11:13;;;;;;;2.08;1.05;;;;;;;;;;4975632;28;20396;-86
2023/07/25 22:13:40;;;;;;;1.60;1.35;;;;;;;;;;4975346;28;20159;-86
2023/07/25 22:16:05;;;;;;;1.20;0.90;;;;;;;;;;4958267;28;20019;-92
2023/07/25 22:18:31;;;;;;;8.18;1.48;;;;;;;;;;4975459;28;20034;-92
2023/07/25 22:20:58;;;;;;;1.42;1.20;;;;;;;;;;4975806;28;20023;-86
2023/07/25 22:23:23;;;;;;;1.67;1.05;;;;;;;;;;4958428;28;20413;-85
2023/07/25 22:25:49;;;;;;;2.05;0.90;;;;;;;;;;4976585;28;20027;-86
2023/07/25 22:28:15;;;;;;;0.85;0.85;;;;;;;;;;4978332;28;20033;-85
2023/07/25 22:30:41;;;;;;;2.00;0.80;;;;;;;;;;4962661;28;20038;-86
2023/07/25 22:33:06;;;;;;;1.52;0.80;;;;;;;;;;4960994;28;20436;-85
2023/07/25 22:35:32;;;;;;;1.83;0.90;;;;;;;;;;4980072;28;20042;-85
2023/07/25 22:38:01;;;;;;;3.25;0.90;;;;;;;;;;4979664;28;20030;-85
2023/07/25 22:40:27;;;;;;;;;;;;;;;;;;4978526;28;20042;-85
2023/07/25 22:42:52;;;;;;;1.00;0.80;;;;;;;;;;4975611;28;19914;-85
2023/07/25 22:45:18;;;;;;;0.98;0.90;;;;;;;;;;4975656;28;20023;-85
2023/07/25 22:47:43;;;;;;;1.38;0.90;;;;;;;;;;4975570;28;20026;-91
